sensor_id;sensor_type;location;lat;lon;timestamp;temperature;humidity
37240;DHT22;23130;48.760;9.178;2023-02-03T00:00:23;5.50;99.90
37240;DHT22;23130;48.760;9.178;2023-02-03T00:02:49;5.60;99.90
37240;DHT22;23130;48.760;9.178;2023-02-03T00:05:15;5.50;99.90
37240;DHT22;23130;48.760;9.178;2023-02-03T00:07:40;5.50;99.90
37240;DHT22;23130;48.760;9.178;2023-02-03T00:10:09;5.40;99.90
37240;DHT22;23130;48.760;9.178;2023-02-03T00:12:34;5.40;99.90
37240;DHT22;23130;48.760;9.178;2023-02-03T00:15:00;5.50;99.90
37240;DHT22;23130;48.760;9.178;2023-02-03T00:17:26;5.50;99.90
37240;DHT22;23130;48.760;9.178;2023-02-03T00:19:51;5.50;99.90
37240;DHT22;23130;48.760;9.178;2023-02-03T00:22:17;5.40;99.90
37240;DHT22;23130;48.760;9.178;2023-02-03T00:24:42;5.40;99.90
37240;DHT22;23130;48.760;9.178;2023-02-03T00:27:08;5.50;99.90
37240;DHT22;23130;48.760;9.178;2023-02-03T00:29:33;5.50;99.90
37240;DHT22;23130;48.760;9.178;2023-02-03T00:31:59;5.50;99.90
37240;DHT22;23130;48.760;9.178;2023-02-03T00:34:28;5.50;99.90
37240;DHT22;23130;48.760;9.178;2023-02-03T00:36:54;5.50;99.90
37240;DHT22;23130;48.760;9.178;2023-02-03T00:39:20;5.50;99.90
37240;DHT22;23130;48.760;9.178;2023-02-03T00:41:46;5.50;99.90
37240;DHT22;23130;48.760;9.178;2023-02-03T00:44:12;5.50;99.90
37240;DHT22;23130;48.760;9.178;2023-02-03T00:46:38;5.50;99.90
37240;DHT22;23130;48.760;9.178;2023-02-03T00:49:04;5.50;99.90
37240;DHT22;23130;48.760;9.178;2023-02-03T00:51:29;5.50;99.90
37240;DHT22;23130;48.760;9.178;2023-02-03T00:53:55;5.50;99.90
37240;DHT22;23130;48.760;9.178;2023-02-03T00:56:20;5.50;99.90
37240;DHT22;23130;48.760;9.178;2023-02-03T00:58:46;5.50;99.90
37240;DHT22;23130;48.760;9.178;2023-02-03T01:01:12;5.50;99.90
37240;DHT22;23130;48.760;9.178;2023-02-03T01:03:37;5.40;99.90
37240;DHT22;23130;48.760;9.178;2023-02-03T01:06:13;5.40;99.90
37240;DHT22;23130;48.760;9.178;2023-02-03T01:08:39;5.40;99.90
37240;DHT22;23130;48.760;9.178;2023-02-03T01:11:10;5.40;99.90
37240;DHT22;23130;48.760;9.178;2023-02-03T01:13:37;5.50;99.90
37240;DHT22;23130;48.760;9.178;2023-02-03T01:16:06;5.50;99.90
37240;DHT22;23130;48.760;9.178;2023-02-03T01:18:32;5.40;99.90
37240;DHT22;23130;48.760;9.178;2023-02-03T01:20:58;5.40;99.90
37240;DHT22;23130;48.760;9.178;2023-02-03T01:23:28;5.50;99.90
37240;DHT22;23130;48.760;9.178;2023-02-03T01:25:54;5.50;99.90
37240;DHT22;23130;48.760;9.178;2023-02-03T01:28:19;5.50;99.90
37240;DHT22;23130;48.760;9.178;2023-02-03T01:30:45;5.50;99.90
37240;DHT22;23130;48.760;9.178;2023-02-03T01:33:10;5.50;99.90
37240;DHT22;23130;48.760;9.178;2023-02-03T01:35:36;5.50;99.90
37240;DHT22;23130;48.760;9.178;2023-02-03T01:38:02;5.50;99.90
37240;DHT22;23130;48.760;9.178;2023-02-03T01:40:27;5.50;99.90
37240;DHT22;23130;48.760;9.178;2023-02-03T01:42:53;5.50;99.90
37240;DHT22;23130;48.760;9.178;2023-02-03T01:45:18;5.50;99.90
37240;DHT22;23130;48.760;9.178;2023-02-03T01:47:47;5.50;99.90
37240;DHT22;23130;48.760;9.178;2023-02-03T01:50:21;5.50;99.90
37240;DHT22;23130;48.760;9.178;2023-02-03T01:53:12;5.40;99.90
37240;DHT22;23130;48.760;9.178;2023-02-03T01:55:41;5.50;99.90
37240;DHT22;23130;48.760;9.178;2023-02-03T01:58:16;5.50;99.90
37240;DHT22;23130;48.760;9.178;2023-02-03T02:00:44;5.50;99.90
37240;DHT22;23130;48.760;9.178;2023-02-03T02:03:12;5.50;99.90
37240;DHT22;23130;48.760;9.178;2023-02-03T02:05:41;5.50;99.90
37240;DHT22;23130;48.760;9.178;2023-02-03T02:08:08;5.50;99.90
37240;DHT22;23130;48.760;9.178;2023-02-03T02:10:34;5.50;99.90
37240;DHT22;23130;48.760;9.178;2023-02-03T02:13:01;5.50;99.90
37240;DHT22;23130;48.760;9.178;2023-02-03T02:15:59;5.50;99.90
37240;DHT22;23130;48.760;9.178;2023-02-03T02:24:45;5.50;99.90
37240;DHT22;23130;48.760;9.178;2023-02-03T02:27:41;5.40;99.90
37240;DHT22;23130;48.760;9.178;2023-02-03T02:41:13;5.30;99.90
37240;DHT22;23130;48.760;9.178;2023-02-03T02:46:13;5.20;99.90
37240;DHT22;23130;48.760;9.178;2023-02-03T02:48:55;5.20;99.90
37240;DHT22;23130;48.760;9.178;2023-02-03T02:51:22;5.10;99.90
37240;DHT22;23130;48.760;9.178;2023-02-03T02:53:53;5.10;99.90
37240;DHT22;23130;48.760;9.178;2023-02-03T02:56:19;5.10;99.90
37240;DHT22;23130;48.760;9.178;2023-02-03T02:58:47;5.10;99.90
37240;DHT22;23130;48.760;9.178;2023-02-03T03:01:14;5.20;99.90
37240;DHT22;23130;48.760;9.178;2023-02-03T03:03:40;5.20;99.90
37240;DHT22;23130;48.760;9.178;2023-02-03T03:06:36;5.20;99.90
37240;DHT22;23130;48.760;9.178;2023-02-03T03:09:04;5.30;99.90
37240;DHT22;23130;48.760;9.178;2023-02-03T03:11:33;5.30;99.90
37240;DHT22;23130;48.760;9.178;2023-02-03T03:14:01;5.30;99.90
37240;DHT22;23130;48.760;9.178;2023-02-03T03:16:28;5.40;99.90
37240;DHT22;23130;48.760;9.178;2023-02-03T03:18:59;5.40;99.90
37240;DHT22;23130;48.760;9.178;2023-02-03T03:21:33;5.40;99.90
37240;DHT22;23130;48.760;9.178;2023-02-03T03:24:06;5.40;99.90
37240;DHT22;23130;48.760;9.178;2023-02-03T03:26:38;5.50;99.90
37240;DHT22;23130;48.760;9.178;2023-02-03T03:31:31;5.50;99.90
37240;DHT22;23130;48.760;9.178;2023-02-03T03:33:57;5.50;99.90
37240;DHT22;23130;48.760;9.178;2023-02-03T03:36:30;5.50;99.90
37240;DHT22;23130;48.760;9.178;2023-02-03T03:44:50;5.50;99.90
37240;DHT22;23130;48.760;9.178;2023-02-03T03:47:30;5.50;99.90
37240;DHT22;23130;48.760;9.178;2023-02-03T03:49:59;5.50;99.90
37240;DHT22;23130;48.760;9.178;2023-02-03T03:52:29;5.50;99.90
37240;DHT22;23130;48.760;9.178;2023-02-03T03:54:56;5.50;99.90
37240;DHT22;23130;48.760;9.178;2023-02-03T03:57:30;5.50;99.90
37240;DHT22;23130;48.760;9.178;2023-02-03T03:59:59;5.60;99.90
37240;DHT22;23130;48.760;9.178;2023-02-03T04:02:27;5.60;99.90
37240;DHT22;23130;48.760;9.178;2023-02-03T04:04:54;5.60;99.90
37240;DHT22;23130;48.760;9.178;2023-02-03T04:07:20;5.60;99.90
37240;DHT22;23130;48.760;9.178;2023-02-03T04:09:46;5.60;99.90
37240;DHT22;23130;48.760;9.178;2023-02-03T04:12:22;5.50;99.90
37240;DHT22;23130;48.760;9.178;2023-02-03T04:14:48;5.50;99.90
37240;DHT22;23130;48.760;9.178;2023-02-03T04:17:13;5.50;99.90
37240;DHT22;23130;48.760;9.178;2023-02-03T04:19:39;5.50;99.90
37240;DHT22;23130;48.760;9.178;2023-02-03T04:22:05;5.40;99.90
37240;DHT22;23130;48.760;9.178;2023-02-03T04:24:30;5.40;99.90
37240;DHT22;23130;48.760;9.178;2023-02-03T04:26:56;5.40;99.90
37240;DHT22;23130;48.760;9.178;2023-02-03T04:29:21;5.30;99.90
37240;DHT22;23130;48.760;9.178;2023-02-03T04:31:47;5.30;99.90
37240;DHT22;23130;48.760;9.178;2023-02-03T04:34:12;5.20;99.90
37240;DHT22;23130;48.760;9.178;2023-02-03T04:36:38;5.20;99.90
37240;DHT22;23130;48.760;9.178;2023-02-03T04:39:03;5.10;99.90
37240;DHT22;23130;48.760;9.178;2023-02-03T04:41:29;5.10;99.90
37240;DHT22;23130;48.760;9.178;2023-02-03T04:43:55;5.10;99.90
37240;DHT22;23130;48.760;9.178;2023-02-03T04:46:21;5.10;99.90
37240;DHT22;23130;48.760;9.178;2023-02-03T04:48:47;5.00;99.90
37240;DHT22;23130;48.760;9.178;2023-02-03T04:51:12;5.00;99.90
37240;DHT22;23130;48.760;9.178;2023-02-03T04:53:38;5.00;99.90
37240;DHT22;23130;48.760;9.178;2023-02-03T04:56:05;5.00;99.90
37240;DHT22;23130;48.760;9.178;2023-02-03T04:58:30;5.00;99.90
37240;DHT22;23130;48.760;9.178;2023-02-03T05:00:56;4.90;99.90
37240;DHT22;23130;48.760;9.178;2023-02-03T05:03:22;4.90;99.90
37240;DHT22;23130;48.760;9.178;2023-02-03T05:05:49;4.90;99.90
37240;DHT22;23130;48.760;9.178;2023-02-03T05:08:14;4.90;99.90
37240;DHT22;23130;48.760;9.178;2023-02-03T05:10:40;4.90;99.90
37240;DHT22;23130;48.760;9.178;2023-02-03T05:13:06;4.80;99.90
37240;DHT22;23130;48.760;9.178;2023-02-03T05:15:31;4.90;99.90
37240;DHT22;23130;48.760;9.178;2023-02-03T05:17:57;4.80;99.90
37240;DHT22;23130;48.760;9.178;2023-02-03T05:20:22;4.90;99.90
37240;DHT22;23130;48.760;9.178;2023-02-03T05:22:48;4.80;99.90
37240;DHT22;23130;48.760;9.178;2023-02-03T05:25:13;4.80;99.90
37240;DHT22;23130;48.760;9.178;2023-02-03T05:27:39;4.80;99.90
37240;DHT22;23130;48.760;9.178;2023-02-03T05:30:07;4.80;99.90
37240;DHT22;23130;48.760;9.178;2023-02-03T05:32:33;4.90;99.90
37240;DHT22;23130;48.760;9.178;2023-02-03T05:34:58;4.90;99.90
37240;DHT22;23130;48.760;9.178;2023-02-03T05:37:24;4.90;99.90
37240;DHT22;23130;48.760;9.178;2023-02-03T05:39:50;4.90;99.90
37240;DHT22;23130;48.760;9.178;2023-02-03T05:42:15;4.90;99.90
37240;DHT22;23130;48.760;9.178;2023-02-03T05:44:41;4.80;99.90
37240;DHT22;23130;48.760;9.178;2023-02-03T05:47:06;4.80;99.90
37240;DHT22;23130;48.760;9.178;2023-02-03T05:49:32;4.80;99.90
37240;DHT22;23130;48.760;9.178;2023-02-03T05:51:58;4.80;99.90
37240;DHT22;23130;48.760;9.178;2023-02-03T05:54:23;4.90;99.90
37240;DHT22;23130;48.760;9.178;2023-02-03T05:56:49;4.80;99.90
37240;DHT22;23130;48.760;9.178;2023-02-03T05:59:15;4.80;99.90
37240;DHT22;23130;48.760;9.178;2023-02-03T06:01:40;4.80;99.90
37240;DHT22;23130;48.760;9.178;2023-02-03T06:04:06;4.80;99.90
37240;DHT22;23130;48.760;9.178;2023-02-03T06:06:32;4.80;99.90
37240;DHT22;23130;48.760;9.178;2023-02-03T06:09:03;4.90;99.90
37240;DHT22;23130;48.760;9.178;2023-02-03T06:11:29;4.90;99.90
37240;DHT22;23130;48.760;9.178;2023-02-03T06:13:55;4.90;99.90
37240;DHT22;23130;48.760;9.178;2023-02-03T06:16:23;5.00;99.90
37240;DHT22;23130;48.760;9.178;2023-02-03T06:18:50;4.90;99.90
37240;DHT22;23130;48.760;9.178;2023-02-03T06:21:16;4.90;99.90
37240;DHT22;23130;48.760;9.178;2023-02-03T06:23:42;5.00;99.90
37240;DHT22;23130;48.760;9.178;2023-02-03T06:26:08;4.90;99.90
37240;DHT22;23130;48.760;9.178;2023-02-03T06:28:33;5.00;99.90
37240;DHT22;23130;48.760;9.178;2023-02-03T06:30:59;5.00;99.90
37240;DHT22;23130;48.760;9.178;2023-02-03T06:33:25;5.00;99.90
37240;DHT22;23130;48.760;9.178;2023-02-03T06:35:52;5.00;99.90
37240;DHT22;23130;48.760;9.178;2023-02-03T06:38:18;5.00;99.90
37240;DHT22;23130;48.760;9.178;2023-02-03T06:40:46;5.00;99.90
37240;DHT22;23130;48.760;9.178;2023-02-03T06:43:12;5.00;99.90
37240;DHT22;23130;48.760;9.178;2023-02-03T06:45:37;5.00;99.90
37240;DHT22;23130;48.760;9.178;2023-02-03T06:48:03;5.00;99.90
37240;DHT22;23130;48.760;9.178;2023-02-03T06:50:29;5.00;99.90
37240;DHT22;23130;48.760;9.178;2023-02-03T06:52:55;5.00;99.90
37240;DHT22;23130;48.760;9.178;2023-02-03T06:55:20;5.00;99.90
37240;DHT22;23130;48.760;9.178;2023-02-03T06:57:47;5.00;99.90
37240;DHT22;23130;48.760;9.178;2023-02-03T07:00:14;5.00;99.90
37240;DHT22;23130;48.760;9.178;2023-02-03T07:02:41;5.00;99.90
37240;DHT22;23130;48.760;9.178;2023-02-03T07:05:07;4.90;99.90
37240;DHT22;23130;48.760;9.178;2023-02-03T07:07:32;4.90;99.90
37240;DHT22;23130;48.760;9.178;2023-02-03T07:10:01;4.90;99.90
37240;DHT22;23130;48.760;9.178;2023-02-03T07:12:27;4.90;99.90
37240;DHT22;23130;48.760;9.178;2023-02-03T07:14:53;4.90;99.90
37240;DHT22;23130;48.760;9.178;2023-02-03T07:17:18;4.90;99.90
37240;DHT22;23130;48.760;9.178;2023-02-03T07:19:44;4.90;99.90
37240;DHT22;23130;48.760;9.178;2023-02-03T07:22:10;4.90;99.90
37240;DHT22;23130;48.760;9.178;2023-02-03T07:24:35;4.90;99.90
37240;DHT22;23130;48.760;9.178;2023-02-03T07:27:01;4.90;99.90
37240;DHT22;23130;48.760;9.178;2023-02-03T07:29:27;4.90;99.90
37240;DHT22;23130;48.760;9.178;2023-02-03T07:31:53;5.00;99.90
37240;DHT22;23130;48.760;9.178;2023-02-03T07:34:18;4.90;99.90
37240;DHT22;23130;48.760;9.178;2023-02-03T07:36:44;5.00;99.90
37240;DHT22;23130;48.760;9.178;2023-02-03T07:39:09;5.00;99.90
37240;DHT22;23130;48.760;9.178;2023-02-03T07:41:35;5.10;99.90
37240;DHT22;23130;48.760;9.178;2023-02-03T07:44:01;5.10;99.90
37240;DHT22;23130;48.760;9.178;2023-02-03T07:46:26;5.00;99.90
37240;DHT22;23130;48.760;9.178;2023-02-03T07:48:52;5.00;99.90
37240;DHT22;23130;48.760;9.178;2023-02-03T07:51:17;5.00;99.90
37240;DHT22;23130;48.760;9.178;2023-02-03T07:53:44;5.00;99.90
37240;DHT22;23130;48.760;9.178;2023-02-03T07:56:10;5.00;99.90
37240;DHT22;23130;48.760;9.178;2023-02-03T07:58:36;5.00;99.90
37240;DHT22;23130;48.760;9.178;2023-02-03T08:01:10;5.00;99.90
37240;DHT22;23130;48.760;9.178;2023-02-03T08:03:36;5.10;99.90
37240;DHT22;23130;48.760;9.178;2023-02-03T08:06:01;5.10;99.90
37240;DHT22;23130;48.760;9.178;2023-02-03T08:08:27;5.10;99.90
37240;DHT22;23130;48.760;9.178;2023-02-03T08:10:54;5.20;99.90
37240;DHT22;23130;48.760;9.178;2023-02-03T08:13:20;5.20;99.90
37240;DHT22;23130;48.760;9.178;2023-02-03T08:15:46;5.20;99.90
37240;DHT22;23130;48.760;9.178;2023-02-03T08:18:12;5.20;99.90
37240;DHT22;23130;48.760;9.178;2023-02-03T08:20:37;5.30;99.90
37240;DHT22;23130;48.760;9.178;2023-02-03T08:23:03;5.30;99.90
37240;DHT22;23130;48.760;9.178;2023-02-03T08:25:28;5.40;99.90
37240;DHT22;23130;48.760;9.178;2023-02-03T08:27:54;5.40;99.90
37240;DHT22;23130;48.760;9.178;2023-02-03T08:30:20;5.50;99.90
37240;DHT22;23130;48.760;9.178;2023-02-03T08:32:46;5.50;99.90
37240;DHT22;23130;48.760;9.178;2023-02-03T08:35:11;5.50;99.90
37240;DHT22;23130;48.760;9.178;2023-02-03T08:37:37;5.50;99.90
37240;DHT22;23130;48.760;9.178;2023-02-03T08:40:04;5.50;99.90
37240;DHT22;23130;48.760;9.178;2023-02-03T08:42:29;5.40;99.90
37240;DHT22;23130;48.760;9.178;2023-02-03T08:44:55;5.50;99.90
37240;DHT22;23130;48.760;9.178;2023-02-03T08:47:21;5.60;99.90
37240;DHT22;23130;48.760;9.178;2023-02-03T08:49:46;5.60;99.90
37240;DHT22;23130;48.760;9.178;2023-02-03T08:52:12;5.70;99.90
37240;DHT22;23130;48.760;9.178;2023-02-03T08:54:38;5.90;99.90
37240;DHT22;23130;48.760;9.178;2023-02-03T08:57:04;6.10;99.90
37240;DHT22;23130;48.760;9.178;2023-02-03T08:59:30;6.10;99.90
37240;DHT22;23130;48.760;9.178;2023-02-03T09:01:56;6.10;99.90
37240;DHT22;23130;48.760;9.178;2023-02-03T09:04:24;6.10;99.90
37240;DHT22;23130;48.760;9.178;2023-02-03T09:06:53;6.00;99.90
37240;DHT22;23130;48.760;9.178;2023-02-03T09:09:20;6.00;99.90
37240;DHT22;23130;48.760;9.178;2023-02-03T09:11:45;6.10;99.90
37240;DHT22;23130;48.760;9.178;2023-02-03T09:14:11;6.10;99.90
37240;DHT22;23130;48.760;9.178;2023-02-03T09:16:37;6.20;99.90
37240;DHT22;23130;48.760;9.178;2023-02-03T09:19:03;6.20;99.90
37240;DHT22;23130;48.760;9.178;2023-02-03T09:21:28;6.30;99.90
37240;DHT22;23130;48.760;9.178;2023-02-03T09:23:54;6.30;99.90
37240;DHT22;23130;48.760;9.178;2023-02-03T09:26:19;6.40;99.90
37240;DHT22;23130;48.760;9.178;2023-02-03T09:28:45;6.50;99.90
37240;DHT22;23130;48.760;9.178;2023-02-03T09:31:13;6.50;99.90
37240;DHT22;23130;48.760;9.178;2023-02-03T09:33:40;6.60;99.90
37240;DHT22;23130;48.760;9.178;2023-02-03T09:36:06;6.60;99.90
37240;DHT22;23130;48.760;9.178;2023-02-03T09:38:33;6.70;99.90
37240;DHT22;23130;48.760;9.178;2023-02-03T09:44:08;6.70;99.90
37240;DHT22;23130;48.760;9.178;2023-02-03T09:46:40;6.80;99.90
37240;DHT22;23130;48.760;9.178;2023-02-03T09:49:17;6.80;99.90
37240;DHT22;23130;48.760;9.178;2023-02-03T09:51:51;6.80;99.90
37240;DHT22;23130;48.760;9.178;2023-02-03T09:54:26;6.90;99.90
37240;DHT22;23130;48.760;9.178;2023-02-03T09:56:55;6.90;99.90
37240;DHT22;23130;48.760;9.178;2023-02-03T09:59:25;7.00;99.90
37240;DHT22;23130;48.760;9.178;2023-02-03T10:02:30;7.00;99.90
37240;DHT22;23130;48.760;9.178;2023-02-03T10:08:19;7.40;99.90
37240;DHT22;23130;48.760;9.178;2023-02-03T10:10:53;7.50;99.90
37240;DHT22;23130;48.760;9.178;2023-02-03T10:13:43;7.60;99.90
37240;DHT22;23130;48.760;9.178;2023-02-03T10:18:52;7.50;99.90
37240;DHT22;23130;48.760;9.178;2023-02-03T10:23:51;7.50;99.90
37240;DHT22;23130;48.760;9.178;2023-02-03T10:26:23;7.30;99.90
37240;DHT22;23130;48.760;9.178;2023-02-03T10:29:01;7.40;99.90
37240;DHT22;23130;48.760;9.178;2023-02-03T10:31:32;7.50;99.90
37240;DHT22;23130;48.760;9.178;2023-02-03T10:34:14;7.70;99.90
37240;DHT22;23130;48.760;9.178;2023-02-03T10:36:57;7.70;99.90
37240;DHT22;23130;48.760;9.178;2023-02-03T10:41:56;7.80;99.90
37240;DHT22;23130;48.760;9.178;2023-02-03T10:44:28;7.80;99.90
37240;DHT22;23130;48.760;9.178;2023-02-03T10:46:56;7.70;99.90
37240;DHT22;23130;48.760;9.178;2023-02-03T10:49:25;7.70;99.90
37240;DHT22;23130;48.760;9.178;2023-02-03T10:51:53;7.70;99.90
37240;DHT22;23130;48.760;9.178;2023-02-03T10:54:32;7.80;99.90
37240;DHT22;23130;48.760;9.178;2023-02-03T10:57:05;8.00;99.90
37240;DHT22;23130;48.760;9.178;2023-02-03T10:59:45;8.00;99.90
37240;DHT22;23130;48.760;9.178;2023-02-03T11:02:26;8.00;99.90
37240;DHT22;23130;48.760;9.178;2023-02-03T11:07:41;8.20;99.90
37240;DHT22;23130;48.760;9.178;2023-02-03T11:12:51;8.50;99.90
37240;DHT22;23130;48.760;9.178;2023-02-03T11:15:17;8.50;99.90
37240;DHT22;23130;48.760;9.178;2023-02-03T11:17:43;8.30;99.90
37240;DHT22;23130;48.760;9.178;2023-02-03T11:20:15;8.20;99.90
37240;DHT22;23130;48.760;9.178;2023-02-03T11:22:42;8.00;99.90
37240;DHT22;23130;48.760;9.178;2023-02-03T11:25:27;7.80;99.90
37240;DHT22;23130;48.760;9.178;2023-02-03T11:28:03;7.70;99.90
37240;DHT22;23130;48.760;9.178;2023-02-03T11:30:31;7.70;99.90
37240;DHT22;23130;48.760;9.178;2023-02-03T11:33:00;7.60;99.90
37240;DHT22;23130;48.760;9.178;2023-02-03T11:35:28;7.60;99.90
37240;DHT22;23130;48.760;9.178;2023-02-03T11:38:01;7.80;99.90
37240;DHT22;23130;48.760;9.178;2023-02-03T11:40:33;8.00;99.90
37240;DHT22;23130;48.760;9.178;2023-02-03T11:43:13;8.20;99.90
37240;DHT22;23130;48.760;9.178;2023-02-03T11:45:51;8.20;99.90
37240;DHT22;23130;48.760;9.178;2023-02-03T11:48:31;8.30;99.90
37240;DHT22;23130;48.760;9.178;2023-02-03T11:53:30;8.40;99.90
37240;DHT22;23130;48.760;9.178;2023-02-03T11:59:18;8.50;99.90
37240;DHT22;23130;48.760;9.178;2023-02-03T12:07:27;8.20;99.90
37240;DHT22;23130;48.760;9.178;2023-02-03T12:29:40;8.00;99.90
37240;DHT22;23130;48.760;9.178;2023-02-03T12:38:13;8.10;99.90
37240;DHT22;23130;48.760;9.178;2023-02-03T12:40:45;8.00;99.90
37240;DHT22;23130;48.760;9.178;2023-02-03T12:45:49;8.00;99.90
37240;DHT22;23130;48.760;9.178;2023-02-03T12:48:19;7.90;99.90
37240;DHT22;23130;48.760;9.178;2023-02-03T12:50:50;7.90;99.90
37240;DHT22;23130;48.760;9.178;2023-02-03T12:53:20;7.90;99.90
37240;DHT22;23130;48.760;9.178;2023-02-03T12:55:54;7.80;99.90
37240;DHT22;23130;48.760;9.178;2023-02-03T12:58:35;7.80;99.90
37240;DHT22;23130;48.760;9.178;2023-02-03T13:01:09;7.80;99.90
37240;DHT22;23130;48.760;9.178;2023-02-03T13:06:47;7.70;99.90
37240;DHT22;23130;48.760;9.178;2023-02-03T13:09:40;7.70;99.90
37240;DHT22;23130;48.760;9.178;2023-02-03T13:12:28;7.80;99.90
37240;DHT22;23130;48.760;9.178;2023-02-03T13:20:26;8.00;99.90
37240;DHT22;23130;48.760;9.178;2023-02-03T13:22:55;8.10;99.90
37240;DHT22;23130;48.760;9.178;2023-02-03T13:28:39;8.10;99.90
37240;DHT22;23130;48.760;9.178;2023-02-03T13:31:22;8.00;99.90
37240;DHT22;23130;48.760;9.178;2023-02-03T13:39:38;7.90;99.90
37240;DHT22;23130;48.760;9.178;2023-02-03T13:42:26;7.90;99.90
37240;DHT22;23130;48.760;9.178;2023-02-03T13:45:08;7.90;99.90
37240;DHT22;23130;48.760;9.178;2023-02-03T13:47:38;7.90;99.90
37240;DHT22;23130;48.760;9.178;2023-02-03T13:50:07;7.90;99.90
37240;DHT22;23130;48.760;9.178;2023-02-03T13:52:47;7.90;99.90
37240;DHT22;23130;48.760;9.178;2023-02-03T13:55:31;8.00;99.90
37240;DHT22;23130;48.760;9.178;2023-02-03T13:57:58;8.00;99.90
37240;DHT22;23130;48.760;9.178;2023-02-03T14:03:15;8.00;99.90
37240;DHT22;23130;48.760;9.178;2023-02-03T14:05:47;8.00;99.90
37240;DHT22;23130;48.760;9.178;2023-02-03T14:21:47;8.00;99.90
37240;DHT22;23130;48.760;9.178;2023-02-03T14:24:14;8.00;99.90
37240;DHT22;23130;48.760;9.178;2023-02-03T14:26:43;7.90;99.90
37240;DHT22;23130;48.760;9.178;2023-02-03T14:29:31;7.90;99.90
37240;DHT22;23130;48.760;9.178;2023-02-03T14:32:07;7.80;99.90
37240;DHT22;23130;48.760;9.178;2023-02-03T14:34:47;7.80;99.90
37240;DHT22;23130;48.760;9.178;2023-02-03T14:37:23;7.90;99.90
37240;DHT22;23130;48.760;9.178;2023-02-03T14:45:38;7.90;99.90
37240;DHT22;23130;48.760;9.178;2023-02-03T14:59:30;7.70;99.90
37240;DHT22;23130;48.760;9.178;2023-02-03T15:02:07;7.60;99.90
37240;DHT22;23130;48.760;9.178;2023-02-03T15:04:33;7.70;99.90
37240;DHT22;23130;48.760;9.178;2023-02-03T15:06:58;7.70;99.90
37240;DHT22;23130;48.760;9.178;2023-02-03T15:11:58;7.60;99.90
37240;DHT22;23130;48.760;9.178;2023-02-03T15:14:26;7.50;99.90
37240;DHT22;23130;48.760;9.178;2023-02-03T15:19:28;7.50;99.90
37240;DHT22;23130;48.760;9.178;2023-02-03T15:21:56;7.40;99.90
37240;DHT22;23130;48.760;9.178;2023-02-03T15:24:22;7.40;99.90
37240;DHT22;23130;48.760;9.178;2023-02-03T15:26:51;7.30;99.90
37240;DHT22;23130;48.760;9.178;2023-02-03T15:29:27;7.30;99.90
37240;DHT22;23130;48.760;9.178;2023-02-03T15:32:32;7.30;99.90
37240;DHT22;23130;48.760;9.178;2023-02-03T15:34:50;7.20;99.90
37240;DHT22;23130;48.760;9.178;2023-02-03T15:37:45;7.20;99.90
37240;DHT22;23130;48.760;9.178;2023-02-03T15:40:13;7.10;99.90
37240;DHT22;23130;48.760;9.178;2023-02-03T15:42:57;7.10;99.90
37240;DHT22;23130;48.760;9.178;2023-02-03T15:50:50;7.10;99.90
37240;DHT22;23130;48.760;9.178;2023-02-03T15:55:46;7.00;99.90
37240;DHT22;23130;48.760;9.178;2023-02-03T15:58:28;7.00;99.90
37240;DHT22;23130;48.760;9.178;2023-02-03T16:00:56;7.00;99.90
37240;DHT22;23130;48.760;9.178;2023-02-03T16:03:36;7.00;99.90
37240;DHT22;23130;48.760;9.178;2023-02-03T16:06:29;7.00;99.90
37240;DHT22;23130;48.760;9.178;2023-02-03T16:08:59;7.00;99.90
37240;DHT22;23130;48.760;9.178;2023-02-03T16:11:32;7.00;99.90
37240;DHT22;23130;48.760;9.178;2023-02-03T16:14:00;7.00;99.90
37240;DHT22;23130;48.760;9.178;2023-02-03T16:16:48;7.00;99.90
37240;DHT22;23130;48.760;9.178;2023-02-03T16:19:22;7.00;99.90
37240;DHT22;23130;48.760;9.178;2023-02-03T16:24:38;6.90;99.90
37240;DHT22;23130;48.760;9.178;2023-02-03T16:29:49;6.80;99.90
37240;DHT22;23130;48.760;9.178;2023-02-03T16:32:33;6.80;99.90
37240;DHT22;23130;48.760;9.178;2023-02-03T16:35:18;6.80;99.90
37240;DHT22;23130;48.760;9.178;2023-02-03T16:38:09;6.70;99.90
37240;DHT22;23130;48.760;9.178;2023-02-03T16:40:55;6.70;99.90
37240;DHT22;23130;48.760;9.178;2023-02-03T16:43:39;6.70;99.90
37240;DHT22;23130;48.760;9.178;2023-02-03T16:46:23;6.70;99.90
37240;DHT22;23130;48.760;9.178;2023-02-03T16:49:07;6.70;99.90
37240;DHT22;23130;48.760;9.178;2023-02-03T16:51:51;6.70;99.90
37240;DHT22;23130;48.760;9.178;2023-02-03T16:54:16;6.70;99.90
37240;DHT22;23130;48.760;9.178;2023-02-03T16:56:42;6.70;99.90
37240;DHT22;23130;48.760;9.178;2023-02-03T16:59:08;6.70;99.90
37240;DHT22;23130;48.760;9.178;2023-02-03T17:01:34;6.70;99.90
37240;DHT22;23130;48.760;9.178;2023-02-03T17:04:00;6.70;99.90
37240;DHT22;23130;48.760;9.178;2023-02-03T17:06:26;6.80;99.90
37240;DHT22;23130;48.760;9.178;2023-02-03T17:08:52;6.80;99.90
37240;DHT22;23130;48.760;9.178;2023-02-03T17:11:20;6.80;99.90
37240;DHT22;23130;48.760;9.178;2023-02-03T17:13:48;6.80;99.90
37240;DHT22;23130;48.760;9.178;2023-02-03T17:16:19;6.80;99.90
37240;DHT22;23130;48.760;9.178;2023-02-03T17:18:45;6.80;99.90
37240;DHT22;23130;48.760;9.178;2023-02-03T17:21:31;6.80;99.90
37240;DHT22;23130;48.760;9.178;2023-02-03T17:23:58;6.80;99.90
37240;DHT22;23130;48.760;9.178;2023-02-03T17:26:23;6.90;99.90
37240;DHT22;23130;48.760;9.178;2023-02-03T17:28:49;6.90;99.90
37240;DHT22;23130;48.760;9.178;2023-02-03T17:31:19;6.90;99.90
37240;DHT22;23130;48.760;9.178;2023-02-03T17:33:48;6.90;99.90
37240;DHT22;23130;48.760;9.178;2023-02-03T17:36:16;7.00;99.90
37240;DHT22;23130;48.760;9.178;2023-02-03T17:38:51;7.00;99.90
37240;DHT22;23130;48.760;9.178;2023-02-03T17:41:20;7.10;99.90
37240;DHT22;23130;48.760;9.178;2023-02-03T17:43:47;7.10;99.90
37240;DHT22;23130;48.760;9.178;2023-02-03T17:46:16;7.10;99.90
37240;DHT22;23130;48.760;9.178;2023-02-03T17:48:42;7.10;99.90
37240;DHT22;23130;48.760;9.178;2023-02-03T17:51:13;7.20;99.90
37240;DHT22;23130;48.760;9.178;2023-02-03T17:53:39;7.20;99.90
37240;DHT22;23130;48.760;9.178;2023-02-03T17:56:07;7.20;99.90
37240;DHT22;23130;48.760;9.178;2023-02-03T17:58:33;7.20;99.90
37240;DHT22;23130;48.760;9.178;2023-02-03T18:00:58;7.20;99.90
37240;DHT22;23130;48.760;9.178;2023-02-03T18:03:24;7.20;99.90
37240;DHT22;23130;48.760;9.178;2023-02-03T18:05:50;7.20;99.90
37240;DHT22;23130;48.760;9.178;2023-02-03T18:08:16;7.20;99.90
37240;DHT22;23130;48.760;9.178;2023-02-03T18:10:41;7.20;99.90
37240;DHT22;23130;48.760;9.178;2023-02-03T18:13:07;7.20;99.90
37240;DHT22;23130;48.760;9.178;2023-02-03T18:15:32;7.20;99.90
37240;DHT22;23130;48.760;9.178;2023-02-03T18:17:58;7.30;99.90
37240;DHT22;23130;48.760;9.178;2023-02-03T18:20:23;7.30;99.90
37240;DHT22;23130;48.760;9.178;2023-02-03T18:22:49;7.30;99.90
37240;DHT22;23130;48.760;9.178;2023-02-03T18:25:15;7.30;99.90
37240;DHT22;23130;48.760;9.178;2023-02-03T18:27:42;7.40;99.90
37240;DHT22;23130;48.760;9.178;2023-02-03T18:30:08;7.30;99.90
37240;DHT22;23130;48.760;9.178;2023-02-03T18:32:35;7.30;99.90
37240;DHT22;23130;48.760;9.178;2023-02-03T18:35:01;7.30;99.90